Time;durP1;ratioP1;P1;durP2;ratioP2;P2;SDS_P1;SDS_P2;PMS_P1;PMS_P2;Temp;Humidity;BMP_temperature;BMP_pressure;BME280_temperature;BME280_humidity;BME280_pressure;Samples;Min_cycle;Max_cycle;Signal;HPM_P1;HPM_P2
2021/12/23 00:00:40;;;;;;;42.90;23.92;;;;;;;2.59;60.49;101673.72;5162545;28;20527;-41
2021/12/23 00:03:13;;;;;;;31.65;19.38;;;;;;;2.63;60.24;101663.97;5160338;28;20781;-42
2021/12/23 00:05:47;;;;;;;40.22;22.08;;;;;;;2.65;60.51;101656.94;5151220;28;20449;-42
2021/12/23 00:08:19;;;;;;;39.05;23.52;;;;;;;2.64;60.46;101656.09;5155022;28;20521;-41
2021/12/23 00:10:52;;;;;;;40.10;23.33;;;;;;;2.65;60.23;101668.19;5155176;28;20478;-42
2021/12/23 00:13:24;;;;;;;37.30;22.30;;;;;;;2.66;60.48;101664.66;5162690;28;20413;-44
2021/12/23 00:16:06;;;;;;;39.05;22.55;;;;;;;2.65;60.46;101649.94;5150440;28;20882;-41
2021/12/23 00:18:46;;;;;;;36.13;21.73;;;;;;;2.68;60.19;101657.59;5157737;28;20426;-42
2021/12/23 00:24:10;;;;;;;30.67;19.27;;;;;;;2.75;60.06;101658.97;5164738;28;20412;-41
2021/12/23 00:26:42;;;;;;;25.40;18.75;;;;;;;2.74;60.02;101652.06;5159250;28;20417;-42
2021/12/23 00:29:15;;;;;;;28.13;19.63;;;;;;;2.82;60.08;101664.75;5164254;28;20427;-42
2021/12/23 00:31:47;;;;;;;29.38;19.90;;;;;;;2.89;60.11;101673.09;5158104;28;20413;-45
2021/12/23 00:34:19;;;;;;;26.52;19.70;;;;;;;2.94;60.13;101678.88;5159275;28;20430;-46
2021/12/23 00:36:55;;;;;;;25.87;19.17;;;;;;;2.98;60.01;101673.44;5160318;28;20401;-44
2021/12/23 00:39:28;;;;;;;26.60;20.27;;;;;;;2.93;60.12;101667.63;5158725;28;20427;-42
2021/12/23 00:42:06;;;;;;;27.30;19.70;;;;;;;2.88;60.13;101658.34;5162079;28;20461;-42
2021/12/23 00:44:45;;;;;;;27.30;17.90;;;;;;;2.87;59.90;101635.78;5162969;28;20416;-42
2021/12/23 00:47:17;;;;;;;27.58;18.92;;;;;;;2.82;59.91;101620.38;5161498;28;20405;-42
2021/12/23 00:49:49;;;;;;;31.25;19.20;;;;;;;2.81;59.93;101604.81;5156460;28;20524;-46
2021/12/23 00:52:28;;;;;;;27.33;17.92;;;;;;;2.78;60.17;101592.75;5152808;28;20418;-43
2021/12/23 00:55:01;;;;;;;26.95;18.05;;;;;;;2.72;59.92;101580.88;5157051;28;20491;-38
2021/12/23 00:57:38;;;;;;;31.38;19.67;;;;;;;2.72;60.10;101590.47;5160820;28;20894;-44
2021/12/23 01:00:16;;;;;;;28.02;17.58;;;;;;;2.74;60.10;101589.47;5159144;28;20457;-41
2021/12/23 01:02:49;;;;;;;34.45;19.33;;;;;;;2.73;60.06;101577.38;5155757;28;20869;-41
2021/12/23 01:05:41;;;;;;;26.42;18.92;;;;;;;2.74;59.72;101573.81;5162937;28;21117;-41
2021/12/23 01:08:19;;;;;;;26.42;18.17;;;;;;;2.70;60.29;101564.50;5151914;28;20488;-42
2021/12/23 01:10:56;;;;;;;24.20;17.58;;;;;;;2.70;60.13;101572.31;5151682;28;20418;-42
2021/12/23 01:13:29;;;;;;;28.75;19.67;;;;;;;2.74;59.91;101573.81;5161165;28;20508;-42
2021/12/23 01:16:04;;;;;;;28.60;18.95;;;;;;;2.76;59.87;101574.59;5161901;28;20521;-48
2021/12/23 01:18:43;;;;;;;27.40;18.55;;;;;;;2.81;59.99;101573.50;5157642;28;20789;-46
2021/12/23 01:21:30;;;;;;;26.52;19.08;;;;;;;2.82;59.78;101564.75;5160628;28;20543;-43
2021/12/23 01:24:04;;;;;;;26.75;19.33;;;;;;;2.82;59.77;101557.78;5155467;28;20389;-43
2021/12/23 01:26:37;;;;;;;25.67;19.67;;;;;;;2.81;59.99;101553.47;5159408;28;20507;-41
2021/12/23 01:29:10;;;;;;;29.45;20.13;;;;;;;2.82;59.89;101549.09;5161726;28;20492;-44
2021/12/23 01:31:44;;;;;;;27.98;20.40;;;;;;;2.82;59.73;101549.94;5159930;28;20401;-42
2021/12/23 01:34:17;;;;;;;29.08;20.83;;;;;;;2.85;59.54;101544.56;5162973;28;20469;-41
2021/12/23 01:36:49;;;;;;;34.60;21.75;;;;;;;2.85;59.54;101543.69;5161539;28;20935;-42
2021/12/23 01:39:23;;;;;;;30.13;20.80;;;;;;;2.89;59.49;101540.03;5155850;28;20413;-41
2021/12/23 01:41:55;;;;;;;34.08;20.33;;;;;;;2.87;59.43;101519.22;5157924;28;20436;-44
2021/12/23 01:44:27;;;;;;;29.35;20.92;;;;;;;2.78;59.51;101512.72;5156490;28;20419;-41
2021/12/23 01:47:00;;;;;;;27.70;20.42;;;;;;;2.87;59.52;101521.84;5164606;28;20498;-41
2021/12/23 01:49:32;;;;;;;30.77;21.20;;;;;;;2.85;59.66;101513.25;5153268;28;20422;-44
2021/12/23 01:52:06;;;;;;;26.83;19.83;;;;;;;2.85;59.30;101520.22;5154373;28;20433;-42
2021/12/23 01:54:40;;;;;;;31.23;22.53;;;;;;;2.77;59.46;101513.66;5156896;28;20520;-42
2021/12/23 01:57:14;;;;;;;31.02;20.23;;;;;;;2.76;59.75;101522.44;5159376;28;20423;-42
2021/12/23 01:59:47;;;;;;;32.65;21.30;;;;;;;2.61;59.76;101499.78;5163294;28;20503;-43
2021/12/23 02:02:19;;;;;;;28.85;19.67;;;;;;;2.67;59.54;101506.44;5153178;28;20436;-42
2021/12/23 02:04:52;;;;;;;26.57;19.03;;;;;;;2.66;59.61;101509.94;5154822;28;20414;-43
2021/12/23 02:07:27;;;;;;;26.75;20.45;;;;;;;2.62;59.89;101493.63;5165791;28;20416;-42
2021/12/23 02:10:00;;;;;;;30.50;21.13;;;;;;;2.63;59.79;101502.28;5163551;28;20409;-44
2021/12/23 02:12:33;;;;;;;28.52;22.23;;;;;;;2.64;59.54;101496.16;5151385;28;20420;-43
2021/12/23 02:15:07;;;;;;;44.75;21.40;;;;;;;2.65;59.57;101505.66;5156496;28;20835;-42
2021/12/23 02:17:39;;;;;;;30.10;21.52;;;;;;;2.65;59.49;101503.91;5163290;28;20757;-45
2021/12/23 02:20:16;;;;;;;27.67;20.00;;;;;;;2.62;59.45;101496.22;5161901;28;20431;-45
2021/12/23 02:22:48;;;;;;;30.75;21.52;;;;;;;2.62;59.45;101496.22;5160615;28;20427;-41
2021/12/23 02:25:21;;;;;;;29.15;22.05;;;;;;;2.62;59.60;101493.63;5153914;28;20432;-41
2021/12/23 02:27:55;;;;;;;31.65;22.38;;;;;;;2.63;59.60;101497.06;5156319;28;20743;-42
2021/12/23 02:30:29;;;;;;;28.67;20.98;;;;;;;2.64;59.73;101490.94;5148506;28;20445;-41
2021/12/23 02:33:02;;;;;;;31.52;22.02;;;;;;;2.67;59.46;101504.66;5151552;28;20427;-46
2021/12/23 02:35:36;;;;;;;29.00;21.92;;;;;;;2.68;59.55;101490.69;5147310;28;20424;-42
2021/12/23 02:38:09;;;;;;;28.95;20.33;;;;;;;2.67;59.36;101493.41;5157727;28;20428;-42
2021/12/23 02:40:44;;;;;;;29.75;21.85;;;;;;;2.63;59.57;101487.47;5153122;28;20423;-42
2021/12/23 02:43:20;;;;;;;27.02;21.10;;;;;;;2.60;59.47;101471.16;5148226;28;20539;-42
2021/12/23 02:45:56;;;;;;;29.05;21.05;;;;;;;2.60;59.53;101465.94;5163543;28;20420;-41
2021/12/23 02:48:34;;;;;;;33.28;22.73;;;;;;;2.52;59.59;101448.97;5151047;28;20441;-42
2021/12/23 02:51:11;;;;;;;30.90;21.83;;;;;;;2.49;59.61;101445.69;5147505;28;20827;-41
2021/12/23 02:53:45;;;;;;;31.27;22.55;;;;;;;2.46;59.65;101419.78;5160067;28;20429;-41
2021/12/23 02:56:17;;;;;;;30.67;22.38;;;;;;;2.48;59.60;101416.16;5155816;28;20500;-45
2021/12/23 02:58:50;;;;;;;28.48;20.35;;;;;;;2.51;59.63;101409.94;5153134;28;20442;-42
2021/12/23 03:01:24;;;;;;;30.48;22.23;;;;;;;2.49;59.81;101415.22;5161638;28;20449;-41
2021/12/23 03:03:57;;;;;;;32.80;22.55;;;;;;;2.42;59.83;101416.50;5152276;28;20420;-42
2021/12/23 03:06:31;;;;;;;37.88;25.63;;;;;;;2.43;59.78;101425.16;5154262;28;20496;-43
2021/12/23 03:09:05;;;;;;;32.45;23.58;;;;;;;2.43;59.91;101427.75;5160130;28;20412;-44
2021/12/23 03:11:40;;;;;;;31.67;23.65;;;;;;;2.43;59.95;101412.94;5156510;28;20421;-42
2021/12/23 03:14:14;;;;;;;38.78;24.02;;;;;;;2.43;59.84;101406.91;5161736;28;20443;-42
2021/12/23 03:16:47;;;;;;;35.75;23.65;;;;;;;2.48;59.89;101430.97;5161703;28;20417;-42
2021/12/23 03:19:21;;;;;;;32.17;22.58;;;;;;;2.48;59.77;101436.19;5152436;28;20463;-42
2021/12/23 03:21:55;;;;;;;34.88;22.23;;;;;;;2.52;59.85;101448.13;5161356;28;20411;-42
2021/12/23 03:24:27;;;;;;;32.50;23.92;;;;;;;2.49;59.66;101438.69;5161177;28;20412;-43
2021/12/23 03:27:00;;;;;;;34.63;23.13;;;;;;;2.50;59.74;101444.75;5148248;28;20462;-41
2021/12/23 03:29:32;;;;;;;32.00;22.70;;;;;;;2.47;59.86;101437.91;5152515;28;20414;-48
2021/12/23 03:32:06;;;;;;;39.67;25.20;;;;;;;2.52;59.70;101438.53;5159151;28;20416;-43
2021/12/23 03:34:38;;;;;;;37.17;26.35;;;;;;;2.53;59.82;101441.97;5151782;28;20423;-44
2021/12/23 03:37:12;;;;;;;33.72;25.02;;;;;;;2.51;59.78;101441.22;5160726;28;20652;-43
2021/12/23 03:39:44;;;;;;;44.25;25.98;;;;;;;2.47;59.76;101442.31;5159543;28;20431;-43
2021/12/23 03:42:20;;;;;;;35.35;26.63;;;;;;;2.44;59.78;101445.91;5153550;28;20498;-43
2021/12/23 03:44:52;;;;;;;34.13;25.23;;;;;;;2.43;59.78;101444.25;5162917;28;20413;-42
2021/12/23 03:47:24;;;;;;;38.95;25.95;;;;;;;2.43;59.79;101432.97;5160324;28;20405;-42
2021/12/23 03:49:57;;;;;;;45.78;27.27;;;;;;;2.43;60.02;101427.75;5156618;28;20413;-42
2021/12/23 03:52:31;;;;;;;45.08;25.50;;;;;;;2.42;59.96;101428.69;5158378;28;20566;-42
2021/12/23 03:55:05;;;;;;;36.95;24.88;;;;;;;2.37;59.56;101420.25;5149902;28;20427;-41
2021/12/23 03:57:37;;;;;;;38.15;26.83;;;;;;;2.29;59.93;101416.31;5156159;28;20447;-41
2021/12/23 04:00:13;;;;;;;35.72;26.95;;;;;;;2.25;59.85;101404.34;5154718;28;20552;-42
2021/12/23 04:02:47;;;;;;;44.53;26.92;;;;;;;2.21;60.15;101396.78;5152065;28;20432;-43
2021/12/23 04:05:20;;;;;;;38.08;27.27;;;;;;;2.21;60.15;101392.41;5151000;28;20436;-43
2021/12/23 04:07:54;;;;;;;39.00;27.70;;;;;;;2.23;60.13;101395.78;5160576;28;21468;-43
2021/12/23 04:10:27;;;;;;;40.72;25.75;;;;;;;2.20;60.03;101395.97;5151470;28;20418;-43
2021/12/23 04:12:59;;;;;;;41.22;27.85;;;;;;;2.16;59.95;101385.78;5161970;28;20415;-41
2021/12/23 04:15:32;;;;;;;47.50;31.13;;;;;;;2.14;60.24;101396.28;5157905;28;20413;-41
2021/12/23 04:18:05;;;;;;;44.00;28.95;;;;;;;2.03;60.26;101382.97;5160955;28;20413;-44
2021/12/23 04:20:46;;;;;;;42.38;30.48;;;;;;;2.12;60.04;101405.09;5155417;28;20581;-42
2021/12/23 04:23:21;;;;;;;42.25;29.63;;;;;;;2.12;60.27;101418.97;5150250;28;20534;-43
2021/12/23 04:25:55;;;;;;;40.35;30.27;;;;;;;2.12;60.00;101403.34;5154125;28;20813;-43
2021/12/23 04:28:28;;;;;;;46.58;32.17;;;;;;;2.13;60.38;101394.59;5153675;28;20420;-41
2021/12/23 04:31:00;;;;;;;43.83;30.90;;;;;;;2.08;60.27;101380.97;5152804;28;20434;-42
2021/12/23 04:33:32;;;;;;;43.22;30.60;;;;;;;2.06;60.12;101377.59;5153231;28;20412;-47
2021/12/23 04:36:06;;;;;;;51.03;32.90;;;;;;;2.03;60.44;101380.38;5156247;28;20548;-45
2021/12/23 04:38:41;;;;;;;48.67;35.53;;;;;;;2.01;60.44;101374.41;5153811;28;20507;-43
2021/12/23 04:41:14;;;;;;;45.70;33.60;;;;;;;2.04;60.32;101389.88;5153711;28;20494;-42
2021/12/23 04:43:47;;;;;;;49.55;37.05;;;;;;;1.98;60.05;101380.63;5143901;28;20424;-42
2021/12/23 04:46:22;;;;;;;53.25;36.40;;;;;;;2.05;60.18;101381.16;5150125;28;20765;-43
2021/12/23 04:48:54;;;;;;;54.10;35.40;;;;;;;2.08;59.99;101376.59;5155879;28;21060;-46
2021/12/23 04:51:27;;;;;;;58.42;40.92;;;;;;;2.13;60.31;101385.94;5156962;28;20521;-42
2021/12/23 04:54:00;;;;;;;67.93;41.28;;;;;;;2.13;60.17;101384.16;5165399;28;20850;-42
2021/12/23 04:56:33;;;;;;;71.30;47.30;;;;;;;2.11;60.08;101386.03;5154396;28;20446;-42
2021/12/23 04:59:05;;;;;;;73.90;47.30;;;;;;;2.18;60.14;101376.94;5160653;28;20991;-42
2021/12/23 05:01:38;;;;;;;74.60;47.47;;;;;;;2.20;60.04;101369.91;5159994;28;20408;-42
2021/12/23 05:04:10;;;;;;;78.40;52.17;;;;;;;2.18;60.38;101352.66;5159658;28;20421;-42
2021/12/23 05:06:42;;;;;;;73.47;44.90;;;;;;;2.15;60.46;101319.78;5158729;28;20808;-42
2021/12/23 05:09:16;;;;;;;68.57;41.75;;;;;;;2.14;60.41;101322.47;5153314;28;20427;-43
2021/12/23 05:11:48;;;;;;;86.00;54.63;;;;;;;2.10;60.33;101320.97;5162869;28;20428;-43
2021/12/23 05:14:21;;;;;;;95.95;58.15;;;;;;;2.12;60.31;101303.50;5150453;28;20415;-41
2021/12/23 05:16:53;;;;;;;83.60;54.30;;;;;;;2.07;60.35;101296.78;5158018;28;20845;-42
2021/12/23 05:19:25;;;;;;;93.70;56.63;;;;;;;2.08;60.47;101300.22;5160667;28;20417;-42
2021/12/23 05:21:58;;;;;;;97.75;57.45;;;;;;;2.06;60.42;101315.06;5160434;28;20438;-42
2021/12/23 05:24:32;;;;;;;100.63;59.38;;;;;;;2.02;60.69;101282.31;5155874;28;20958;-43
2021/12/23 05:27:05;;;;;;;87.95;55.97;;;;;;;2.14;61.04;101281.63;5150132;28;20754;-42
2021/12/23 05:29:37;;;;;;;101.40;61.53;;;;;;;2.08;60.69;101302.81;5163539;28;20952;-45
2021/12/23 05:32:10;;;;;;;100.32;60.95;;;;;;;2.12;60.65;101332.16;5164758;28;21096;-42
2021/12/23 05:34:42;;;;;;;97.22;58.13;;;;;;;2.13;60.55;101311.19;5154980;28;20433;-41
2021/12/23 05:37:15;;;;;;;105.13;61.20;;;;;;;2.12;60.81;101286.09;5152448;28;20462;-42
2021/12/23 05:39:49;;;;;;;103.35;63.22;;;;;;;2.17;60.72;101278.88;5165057;28;20417;-42
2021/12/23 05:42:21;;;;;;;98.85;59.30;;;;;;;2.17;60.80;101268.44;5160678;28;20515;-42
2021/12/23 05:44:53;;;;;;;113.95;66.50;;;;;;;2.18;60.67;101277.94;5164273;28;20411;-42
2021/12/23 05:47:26;;;;;;;103.90;62.92;;;;;;;2.17;60.92;101276.25;5154659;28;20996;-42
2021/12/23 05:49:58;;;;;;;116.05;67.60;;;;;;;2.18;60.80;101277.94;5161704;28;20435;-42
2021/12/23 05:52:30;;;;;;;108.57;67.28;;;;;;;2.26;60.94;101277.50;5165068;28;20889;-41
2021/12/23 05:55:06;;;;;;;109.20;65.05;;;;;;;2.27;60.92;101280.03;5152872;28;20508;-45
2021/12/23 05:57:39;;;;;;;101.20;61.40;;;;;;;2.29;60.81;101280.78;5152697;28;20465;-44
2021/12/23 06:00:18;;;;;;;106.60;63.38;;;;;;;2.28;60.96;101284.31;5160892;28;20416;-42
2021/12/23 06:02:51;;;;;;;108.88;64.53;;;;;;;2.28;60.83;101283.47;5160819;28;20416;-43
2021/12/23 06:05:24;;;;;;;105.25;66.15;;;;;;;2.29;60.74;101277.31;5167079;28;20510;-43
2021/12/23 06:07:58;;;;;;;107.28;66.65;;;;;;;2.30;61.11;101282.47;5153093;28;20419;-42
2021/12/23 06:10:32;;;;;;;109.65;66.00;;;;;;;2.30;60.91;101281.63;5152206;28;20410;-42
2021/12/23 06:13:04;;;;;;;105.10;64.25;;;;;;;2.31;60.98;101278.91;5153249;28;20920;-41
2021/12/23 06:15:37;;;;;;;106.43;63.30;;;;;;;2.29;61.30;101286.00;5150588;28;20430;-41
2021/12/23 06:18:09;;;;;;;109.82;67.35;;;;;;;2.29;61.38;101272.09;5160384;28;20512;-47
2021/12/23 06:20:42;;;;;;;116.35;68.07;;;;;;;2.24;61.64;101267.16;5158081;28;20437;-43
2021/12/23 06:23:14;;;;;;;107.93;61.92;;;;;;;2.21;61.46;101285.56;5165622;28;21033;-42
2021/12/23 06:25:48;;;;;;;111.45;65.32;;;;;;;2.26;61.43;101278.34;5158412;28;20516;-42
2021/12/23 06:28:20;;;;;;;111.85;64.32;;;;;;;2.18;61.14;101262.28;5157747;28;20432;-43
2021/12/23 06:31:02;;;;;;;107.97;64.27;;;;;;;2.31;61.45;101272.88;5162861;28;20749;-42
2021/12/23 06:33:34;;;;;;;119.68;65.22;;;;;;;2.36;61.12;101270.03;5162857;28;20414;-43
2021/12/23 06:36:07;;;;;;;110.10;65.25;;;;;;;1.78;61.31;101177.72;5162706;28;20512;-43
2021/12/23 06:38:40;;;;;;;117.75;66.20;;;;;;;2.30;61.46;101256.41;5151896;28;20771;-43
2021/12/23 06:41:15;;;;;;;117.25;65.00;;;;;;;2.29;61.22;101254.72;5160404;28;20422;-41
2021/12/23 06:43:48;;;;;;;121.75;67.50;;;;;;;2.30;61.58;101251.19;5155868;28;20428;-42
2021/12/23 06:46:20;;;;;;;112.38;62.90;;;;;;;2.29;61.45;101239.09;5160000;28;20415;-42
2021/12/23 06:48:53;;;;;;;117.70;65.85;;;;;;;2.34;61.66;101245.81;5167376;28;20475;-43
2021/12/23 06:51:28;;;;;;;104.53;59.73;;;;;;;2.30;61.53;101225.13;5149984;28;20501;-47
2021/12/23 06:54:02;;;;;;;99.75;58.30;;;;;;;2.36;61.57;101223.94;5155257;28;20417;-45
2021/12/23 06:56:35;;;;;;;101.57;62.17;;;;;;;2.35;61.48;101210.97;5163303;28;20442;-44
2021/12/23 06:59:08;;;;;;;100.47;61.50;;;;;;;2.31;61.54;101216.38;5160620;28;20968;-42
2021/12/23 07:01:40;;;;;;;104.63;61.17;;;;;;;2.26;61.70;101200.16;5159571;28;20410;-44
2021/12/23 07:04:15;;;;;;;94.90;58.55;;;;;;;2.28;61.73;101197.47;5163257;28;20985;-46
2021/12/23 07:06:56;;;;;;;101.75;59.83;;;;;;;2.27;61.95;101193.19;5156313;28;20788;-44
2021/12/23 07:09:29;;;;;;;100.95;56.75;;;;;;;2.26;61.87;101191.50;5152831;28;20896;-42
2021/12/23 07:12:14;;;;;;;102.33;59.27;;;;;;;2.25;61.92;101192.41;5163202;28;20439;-43
2021/12/23 07:14:47;;;;;;;104.15;59.70;;;;;;;2.22;61.87;101185.63;5158943;28;20424;-44
2021/12/23 07:17:19;;;;;;;105.97;62.17;;;;;;;2.28;61.84;101192.25;5154784;28;20488;-44
2021/12/23 07:19:52;;;;;;;110.25;62.20;;;;;;;2.31;62.02;101192.91;5157996;28;21931;-45
2021/12/23 07:22:24;;;;;;;103.22;59.70;;;;;;;2.33;61.79;101202.44;5163722;28;20523;-43
2021/12/23 07:24:56;;;;;;;104.38;58.78;;;;;;;2.31;61.86;101200.72;5162245;28;20822;-43
2021/12/23 07:27:30;;;;;;;101.30;59.83;;;;;;;2.29;62.05;101186.09;5163604;28;20417;-43
2021/12/23 07:30:05;;;;;;;112.63;62.90;;;;;;;2.28;62.18;101195.69;5161761;28;20409;-47
2021/12/23 07:32:37;;;;;;;99.32;58.75;;;;;;;2.25;62.29;101198.47;5164512;28;20768;-43
2021/12/23 07:35:10;;;;;;;99.88;57.92;;;;;;;2.27;62.18;101194.03;5156819;28;20426;-43
2021/12/23 07:37:44;;;;;;;111.43;61.30;;;;;;;2.29;62.33;101189.56;5164018;28;20424;-43
2021/12/23 07:40:17;;;;;;;107.32;58.80;;;;;;;2.33;62.00;101202.44;5155384;28;20435;-42
2021/12/23 07:42:56;;;;;;;107.70;59.38;;;;;;;2.36;62.09;101207.47;5156481;28;20420;-43
2021/12/23 07:45:30;;;;;;;110.68;62.20;;;;;;;2.40;62.04;101203.75;5164755;28;20803;-43
2021/12/23 07:48:02;;;;;;;106.43;60.17;;;;;;;2.38;62.52;101200.38;5152774;28;20861;-47
2021/12/23 07:50:37;;;;;;;115.70;63.63;;;;;;;2.39;62.17;101191.66;5158277;28;20446;-45
2021/12/23 07:53:09;;;;;;;113.38;62.10;;;;;;;2.43;62.15;101193.97;5155048;28;20916;-42
2021/12/23 07:55:42;;;;;;;112.37;61.43;;;;;;;2.48;62.20;101193.72;5161100;28;20421;-43
2021/12/23 07:58:41;;;;;;;117.05;61.95;;;;;;;2.52;62.19;101192.59;5160728;28;20823;-46
2021/12/23 08:01:13;;;;;;;111.85;63.88;;;;;;;2.45;62.31;101188.69;5160503;28;20421;-42
2021/12/23 08:03:46;;;;;;;106.35;60.25;;;;;;;2.44;62.32;101184.38;5159371;28;20420;-45
2021/12/23 08:06:18;;;;;;;111.07;62.60;;;;;;;2.41;62.59;101182.78;5163172;28;20511;-43
2021/12/23 08:08:51;;;;;;;114.28;59.45;;;;;;;2.46;62.51;101177.31;5156846;28;20511;-43
2021/12/23 08:11:23;;;;;;;115.63;64.60;;;;;;;2.41;62.53;101163.72;5152007;28;20759;-43
2021/12/23 08:13:57;;;;;;;109.05;62.10;;;;;;;2.52;62.58;101169.16;5147922;28;20506;-44
2021/12/23 08:16:29;;;;;;;109.53;59.97;;;;;;;2.53;62.46;101163.00;5146986;28;20860;-45
2021/12/23 08:19:01;;;;;;;106.60;62.22;;;;;;;2.47;62.48;101158.97;5153959;28;20433;-45
2021/12/23 08:21:34;;;;;;;110.22;61.35;;;;;;;2.45;62.75;101157.41;5158550;28;20964;-44
2021/12/23 08:24:07;;;;;;;113.57;61.20;;;;;;;2.45;62.64;101157.41;5179800;28;20501;-42
2021/12/23 08:26:50;;;;;;;109.82;62.22;;;;;;;2.43;62.83;101161.84;5175495;28;20460;-44
2021/12/23 08:29:24;;;;;;;114.57;59.45;;;;;;;2.45;62.95;101160.00;5184078;28;20419;-45
2021/12/23 08:31:57;;;;;;;114.15;60.60;;;;;;;2.39;62.66;101129.09;5179607;28;20442;-45
2021/12/23 08:34:34;;;;;;;107.18;59.67;;;;;;;2.47;62.97;101126.84;5182058;28;20416;-45
2021/12/23 08:37:11;;;;;;;118.07;61.63;;;;;;;2.43;62.97;101114.94;5179800;28;20506;-44
2021/12/23 08:39:47;;;;;;;108.10;58.55;;;;;;;2.45;63.04;101111.31;5184219;28;20431;-45
2021/12/23 08:42:19;;;;;;;109.50;57.63;;;;;;;2.31;63.09;101091.25;5178693;28;20538;-42
2021/12/23 08:44:53;;;;;;;114.18;63.13;;;;;;;2.43;63.17;101109.72;5168102;28;28845;-43
2021/12/23 08:47:25;;;;;;;101.97;53.70;;;;;;;2.41;63.33;101098.53;5176265;28;20461;-43
2021/12/23 08:49:58;;;;;;;106.85;55.08;;;;;;;2.38;63.22;101096.94;5182055;28;20903;-44
2021/12/23 08:52:31;;;;;;;112.88;59.38;;;;;;;2.31;63.14;101093.88;5181128;28;20434;-43
2021/12/23 08:55:06;;;;;;;110.93;61.17;;;;;;;2.22;63.48;101091.81;5169445;28;20413;-49
2021/12/23 08:57:39;;;;;;;109.70;58.83;;;;;;;2.35;63.45;101091.09;5165077;28;20431;-42
2021/12/23 09:00:18;;;;;;;106.88;58.72;;;;;;;2.38;63.29;101090.91;5174805;28;20508;-43
2021/12/23 09:02:51;;;;;;;105.03;55.28;;;;;;;2.37;63.39;101071.00;5182294;28;20417;-44
2021/12/23 09:05:23;;;;;;;119.28;59.30;;;;;;;2.40;63.33;101065.59;5177425;28;21155;-44
2021/12/23 09:07:56;;;;;;;107.75;58.97;;;;;;;2.44;63.33;101054.03;5172969;28;20920;-46
2021/12/23 09:10:42;;;;;;;113.45;58.83;;;;;;;2.45;63.52;101055.75;5172517;28;20425;-46
2021/12/23 09:13:15;;;;;;;99.10;55.90;;;;;;;2.42;63.54;101030.69;5173323;28;20426;-43
2021/12/23 09:15:49;;;;;;;114.65;60.03;;;;;;;2.42;63.52;101041.13;5173096;28;20498;-44
2021/12/23 09:18:23;;;;;;;113.15;60.47;;;;;;;2.49;63.40;101041.59;5197422;28;20438;-44
2021/12/23 09:20:57;;;;;;;110.75;58.47;;;;;;;2.53;63.58;101033.47;5194028;28;20847;-45
2021/12/23 09:23:29;;;;;;;103.57;55.67;;;;;;;2.56;63.40;101023.78;5194746;28;20428;-43
2021/12/23 09:26:08;;;;;;;109.93;56.35;;;;;;;2.53;63.68;101020.44;5200265;28;20424;-44
2021/12/23 09:28:55;;;;;;;106.73;56.80;;;;;;;2.55;63.62;101020.34;5192503;28;20909;-43
2021/12/23 09:34:19;;;;;;;95.30;53.05;;;;;;;2.43;63.58;101003.69;5196772;28;20423;-43
2021/12/23 09:36:51;;;;;;;96.53;53.97;;;;;;;2.54;63.80;101029.13;5194350;28;20518;-43
2021/12/23 09:39:24;;;;;;;112.95;62.20;;;;;;;2.58;63.67;101035.81;5193379;28;20422;-44
2021/12/23 09:41:58;;;;;;;104.07;57.17;;;;;;;2.62;63.59;101031.25;5194192;28;20477;-43
2021/12/23 09:44:31;;;;;;;106.03;57.58;;;;;;;2.74;63.54;101035.72;5189281;28;20466;-42
2021/12/23 09:47:06;;;;;;;111.07;58.65;;;;;;;2.81;63.48;101028.34;5190415;28;20444;-44
2021/12/23 09:49:38;;;;;;;112.63;61.65;;;;;;;2.87;63.66;101041.00;5195249;28;20523;-43
2021/12/23 09:52:11;;;;;;;103.88;55.83;;;;;;;2.92;63.56;101046.78;5196211;28;20440;-42
2021/12/23 09:54:44;;;;;;;102.65;56.08;;;;;;;2.91;63.88;101050.31;5188504;28;20413;-43
2021/12/23 09:57:17;;;;;;;101.15;57.47;;;;;;;2.90;63.74;101043.41;5188483;28;20425;-42
2021/12/23 09:59:49;;;;;;;104.07;56.05;;;;;;;2.86;63.83;101045.38;5196613;28;20524;-44
2021/12/23 10:02:23;;;;;;;101.28;55.65;;;;;;;2.88;64.10;101053.09;5199439;28;20421;-44
2021/12/23 10:04:56;;;;;;;107.07;59.13;;;;;;;2.83;63.75;101039.53;5203236;28;20406;-42
2021/12/23 10:07:28;;;;;;;108.77;59.53;;;;;;;2.83;63.97;101040.34;5194165;28;20483;-43
2021/12/23 10:10:06;;;;;;;108.63;58.22;;;;;;;2.87;63.86;101035.78;5200717;28;20429;-44
2021/12/23 10:13:17;;;;;;;102.70;56.42;;;;;;;2.91;63.92;101032.91;5200524;28;20439;-44
2021/12/23 10:30:24;;;;;;;108.95;60.83;;;;;;;2.88;64.08;101027.00;5184584;28;21874;-44
2021/12/23 10:38:52;;;;;;;108.45;59.03;;;;;;;2.98;64.13;101018.53;5186486;28;20419;-44
2021/12/23 10:41:28;;;;;;;102.65;54.78;;;;;;;2.96;64.19;101007.34;5194259;28;20863;-45
2021/12/23 10:44:03;;;;;;;106.88;60.88;;;;;;;2.96;64.32;101001.28;5187611;28;20422;-45
2021/12/23 10:46:40;;;;;;;98.18;55.22;;;;;;;2.95;64.25;100991.81;5191206;28;21003;-42
2021/12/23 10:49:28;;;;;;;94.78;52.45;;;;;;;2.98;64.24;100991.59;5191815;28;20505;-43
2021/12/23 10:52:08;;;;;;;103.57;56.20;;;;;;;2.99;64.39;100988.88;5190574;28;20594;-43
2021/12/23 10:58:05;;;;;;;104.97;53.50;;;;;;;3.02;64.33;100977.41;5166319;28;21019;-43
2021/12/23 11:00:41;;;;;;;107.32;56.20;;;;;;;3.10;64.30;100969.97;5198214;28;20414;-43
2021/12/23 11:03:19;;;;;;;91.78;50.78;;;;;;;3.08;64.28;100969.22;5193964;28;20401;-45
2021/12/23 11:06:04;;;;;;;98.50;55.55;;;;;;;3.20;64.34;100960.59;5197430;28;20437;-43
2021/12/23 11:08:47;;;;;;;104.95;57.15;;;;;;;3.29;64.20;100964.38;5178868;28;20554;-47
2021/12/23 11:11:38;;;;;;;106.68;55.10;;;;;;;2.99;64.06;100905.41;5189838;28;21179;-42
2021/12/23 11:29:32;;;;;;;90.78;50.63;;;;;;;3.54;64.55;100939.28;5148172;28;20413;-43
2021/12/23 11:37:44;;;;;;;91.22;51.65;;;;;;;3.82;64.06;100922.59;5187403;28;20419;-45
2021/12/23 11:40:36;;;;;;;91.68;51.90;;;;;;;3.90;64.22;100917.66;5189852;28;20421;-44
2021/12/23 11:43:46;;;;;;;89.43;49.95;;;;;;;3.97;63.97;100905.84;5192500;28;21008;-42
2021/12/23 11:46:23;;;;;;;91.97;52.17;;;;;;;4.02;64.21;100895.91;5194139;28;20429;-43
2021/12/23 11:49:00;;;;;;;96.15;53.53;;;;;;;4.11;64.22;100889.22;5195111;28;20992;-44
2021/12/23 11:51:51;;;;;;;84.23;48.90;;;;;;;4.13;64.17;100882.94;5199133;28;20446;-45
2021/12/23 11:54:30;;;;;;;87.30;48.63;;;;;;;3.89;64.10;100811.47;5198584;28;21245;-44
2021/12/23 11:57:07;;;;;;;85.68;48.28;;;;;;;4.16;64.26;100856.59;5166060;28;20419;-43
2021/12/23 11:59:43;;;;;;;83.95;50.47;;;;;;;4.21;64.31;100848.41;5187426;28;20467;-43
2021/12/23 12:02:19;;;;;;;91.43;49.67;;;;;;;4.24;64.33;100847.34;5190633;28;20939;-44
2021/12/23 12:05:00;;;;;;;87.03;48.83;;;;;;;4.25;64.11;100841.19;5190289;28;20430;-43
2021/12/23 12:07:33;;;;;;;80.35;46.80;;;;;;;4.28;64.60;100818.28;5189930;28;20424;-42
2021/12/23 12:10:09;;;;;;;76.25;45.85;;;;;;;4.36;64.36;100815.94;5185860;28;20423;-44
2021/12/23 12:12:59;;;;;;;84.83;48.83;;;;;;;4.42;64.38;100798.16;5193373;28;20573;-45
2021/12/23 12:15:47;;;;;;;81.70;47.03;;;;;;;4.44;64.47;100802.31;5196608;28;20593;-45
2021/12/23 12:18:22;;;;;;;77.57;47.60;;;;;;;4.50;64.17;100801.88;5184782;28;20426;-46
2021/12/23 12:21:00;;;;;;;74.78;44.13;;;;;;;4.57;64.42;100803.09;5193107;28;20884;-41
2021/12/23 12:23:35;;;;;;;77.40;44.00;;;;;;;4.45;64.28;100777.00;5193381;28;20425;-46
2021/12/23 12:26:10;;;;;;;75.18;43.80;;;;;;;4.63;64.33;100786.94;5192577;28;20428;-43
2021/12/23 12:29:05;;;;;;;82.20;44.55;;;;;;;4.48;64.34;100759.31;5198046;28;20897;-45
2021/12/23 12:31:42;;;;;;;72.78;43.63;;;;;;;4.78;64.42;100784.16;5191538;28;20482;-43
2021/12/23 12:34:15;;;;;;;79.87;46.67;;;;;;;4.81;64.28;100786.56;5194051;28;20516;-47
2021/12/23 12:36:49;;;;;;;77.22;44.60;;;;;;;4.87;64.11;100777.41;5188069;28;20422;-44
2021/12/23 12:39:25;;;;;;;67.67;43.43;;;;;;;4.91;64.28;100784.91;5174261;28;20465;-44